GLO1774 SBGR-SBFN
Flight info
| Callsign | GLO1774 |
|---|---|
| Flight time | 3h 19m |
| Altitude | 37000 |
| Route | VUMEV UZ14 AMBET UN857 FNR DCT |
| Aircraft | B738/M-SDFGIKLORWXY/LB1 |
Departure
| Time | 2026-04-24 13:02 |
|---|---|
| Airport | São Paulo/Guarulhos–Governor André Franco Montoro International Airport (SBGR) |
Arrival
| Time | 2026-04-24 16:22 |
|---|---|
| Airport | Fernando de Noronha Airport (SBFN) |
| Time | Latitude | Longitude | Altitude | Speed | Heading |
|---|---|---|---|---|---|
| 2026-04-24 11:59 | -23.42816 | -46.48548 | 2446 ft | 0 kts | 275° |
| 2026-04-24 12:54 | -23.42817 | -46.48537 | 2446 ft | 2 kts | 274° |
| 2026-04-24 12:55 | -23.42818 | -46.48521 | 2446 ft | 2 kts | 275° |
| 2026-04-24 12:55 | -23.42820 | -46.48507 | 2446 ft | 0 kts | 274° |
| 2026-04-24 12:55 | -23.42819 | -46.48494 | 2446 ft | 2 kts | 250° |
| 2026-04-24 12:55 | -23.42811 | -46.48481 | 2447 ft | 2 kts | 219° |
| 2026-04-24 12:56 | -23.42797 | -46.48473 | 2447 ft | 1 kts | 188° |
| 2026-04-24 12:56 | -23.42791 | -46.48473 | 2447 ft | 1 kts | 176° |
| 2026-04-24 12:56 | -23.42787 | -46.48473 | 2447 ft | 0 kts | 179° |
| 2026-04-24 12:57 | -23.42789 | -46.48473 | 2447 ft | 2 kts | 179° |
| 2026-04-24 12:57 | -23.42834 | -46.48473 | 2446 ft | 10 kts | 179° |
| 2026-04-24 12:58 | -23.42898 | -46.48466 | 2445 ft | 8 kts | 163° |
| 2026-04-24 12:58 | -23.42957 | -46.48450 | 2445 ft | 8 kts | 177° |
| 2026-04-24 12:58 | -23.43011 | -46.48450 | 2444 ft | 9 kts | 178° |
| 2026-04-24 12:58 | -23.43087 | -46.48433 | 2444 ft | 12 kts | 163° |
| 2026-04-24 12:59 | -23.43164 | -46.48407 | 2444 ft | 10 kts | 163° |
| 2026-04-24 12:59 | -23.43227 | -46.48388 | 2446 ft | 7 kts | 163° |
| 2026-04-24 12:59 | -23.43269 | -46.48375 | 2447 ft | 4 kts | 163° |
| 2026-04-24 12:59 | -23.43289 | -46.48368 | 2447 ft | 1 kts | 163° |
| 2026-04-24 13:00 | -23.43305 | -46.48363 | 2448 ft | 4 kts | 163° |
| 2026-04-24 13:00 | -23.43349 | -46.48349 | 2449 ft | 8 kts | 163° |
| 2026-04-24 13:00 | -23.43406 | -46.48331 | 2450 ft | 7 kts | 163° |
| 2026-04-24 13:00 | -23.43420 | -46.48301 | 2451 ft | 4 kts | 69° |
| 2026-04-24 13:01 | -23.43413 | -46.48281 | 2451 ft | 1 kts | 76° |
| 2026-04-24 13:01 | -23.43395 | -46.48207 | 2451 ft | 34 kts | 75° |
| 2026-04-24 13:01 | -23.43257 | -46.47712 | 2452 ft | 100 kts | 71° |
| 2026-04-24 13:01 | -23.43009 | -46.46766 | 2449 ft | 160 kts | 72° |
| 2026-04-24 13:02 | -23.42619 | -46.45417 | 2564 ft | 202 kts | 70° |
| 2026-04-24 13:02 | -23.42195 | -46.44046 | 3635 ft | 185 kts | 69° |
| 2026-04-24 13:02 | -23.41782 | -46.42696 | 3967 ft | 199 kts | 71° |
| 2026-04-24 13:02 | -23.41362 | -46.41235 | 4344 ft | 209 kts | 72° |
| 2026-04-24 13:03 | -23.40922 | -46.39663 | 4680 ft | 223 kts | 72° |
| 2026-04-24 13:03 | -23.40445 | -46.37970 | 4989 ft | 242 kts | 71° |
| 2026-04-24 13:03 | -23.39900 | -46.36213 | 5368 ft | 254 kts | 66° |
| 2026-04-24 13:03 | -23.39065 | -46.34446 | 5736 ft | 267 kts | 57° |
| 2026-04-24 13:04 | -23.38030 | -46.32721 | 6265 ft | 274 kts | 54° |
| 2026-04-24 13:04 | -23.36959 | -46.30990 | 6894 ft | 277 kts | 55° |
| 2026-04-24 13:04 | -23.35793 | -46.29324 | 7537 ft | 279 kts | 41° |
| 2026-04-24 13:04 | -23.34198 | -46.28119 | 8217 ft | 279 kts | 28° |
| 2026-04-24 13:05 | -23.32448 | -46.27134 | 8886 ft | 282 kts | 27° |
| 2026-04-24 13:05 | -23.30713 | -46.26129 | 9540 ft | 286 kts | 29° |
| 2026-04-24 13:05 | -23.28965 | -46.25021 | 10196 ft | 289 kts | 31° |
| 2026-04-24 13:05 | -23.27242 | -46.23867 | 10726 ft | 298 kts | 32° |
| 2026-04-24 13:06 | -23.25454 | -46.22649 | 11091 ft | 312 kts | 32° |
| 2026-04-24 13:06 | -23.23550 | -46.21348 | 11510 ft | 325 kts | 31° |
| 2026-04-24 13:06 | -23.21618 | -46.20031 | 12105 ft | 330 kts | 31° |
| 2026-04-24 13:06 | -23.19673 | -46.18710 | 12775 ft | 333 kts | 31° |
| 2026-04-24 13:07 | -23.17689 | -46.17363 | 13459 ft | 335 kts | 31° |
| 2026-04-24 13:07 | -23.15698 | -46.16015 | 14068 ft | 339 kts | 31° |
| 2026-04-24 13:07 | -23.13708 | -46.14629 | 14647 ft | 345 kts | 33° |
| 2026-04-24 13:07 | -23.11754 | -46.13118 | 15251 ft | 349 kts | 35° |
| 2026-04-24 13:08 | -23.09772 | -46.11507 | 15845 ft | 354 kts | 36° |
| 2026-04-24 13:08 | -23.07786 | -46.09884 | 16378 ft | 360 kts | 36° |
| 2026-04-24 13:08 | -23.05757 | -46.08241 | 16939 ft | 364 kts | 35° |
| 2026-04-24 13:09 | -23.01599 | -46.04927 | 17980 ft | 374 kts | 34° |
| 2026-04-24 13:09 | -22.99467 | -46.03244 | 18474 ft | 380 kts | 34° |
| 2026-04-24 13:09 | -22.97321 | -46.01554 | 19000 ft | 384 kts | 34° |
| 2026-04-24 13:09 | -22.95149 | -45.99845 | 19505 ft | 389 kts | 34° |
| 2026-04-24 13:10 | -22.92949 | -45.98116 | 19970 ft | 394 kts | 34° |
| 2026-04-24 13:10 | -22.90694 | -45.96345 | 20467 ft | 398 kts | 34° |
| 2026-04-24 13:10 | -22.88439 | -45.94573 | 20932 ft | 403 kts | 34° |
| 2026-04-24 13:10 | -22.86159 | -45.92781 | 21364 ft | 408 kts | 34° |
| 2026-04-24 13:11 | -22.83835 | -45.90956 | 21792 ft | 413 kts | 34° |
| 2026-04-24 13:11 | -22.81487 | -45.89113 | 22276 ft | 416 kts | 34° |
| 2026-04-24 13:11 | -22.79128 | -45.87260 | 22703 ft | 421 kts | 34° |
| 2026-04-24 13:11 | -22.76753 | -45.85395 | 23171 ft | 423 kts | 34° |
| 2026-04-24 13:12 | -22.74360 | -45.83517 | 23630 ft | 426 kts | 34° |
| 2026-04-24 13:12 | -22.71927 | -45.81610 | 24096 ft | 429 kts | 34° |
| 2026-04-24 13:12 | -22.69495 | -45.79702 | 24502 ft | 433 kts | 33° |
| 2026-04-24 13:12 | -22.67057 | -45.77792 | 24949 ft | 435 kts | 33° |
| 2026-04-24 13:13 | -22.64609 | -45.75874 | 25366 ft | 438 kts | 34° |
| 2026-04-24 13:13 | -22.62105 | -45.73914 | 25782 ft | 441 kts | 34° |
| 2026-04-24 13:13 | -22.59612 | -45.71964 | 26205 ft | 443 kts | 33° |
| 2026-04-24 13:13 | -22.57103 | -45.70000 | 26596 ft | 446 kts | 33° |
| 2026-04-24 13:14 | -22.54569 | -45.68019 | 26998 ft | 449 kts | 34° |
| 2026-04-24 13:14 | -22.52033 | -45.66037 | 27430 ft | 450 kts | 33° |
| 2026-04-24 13:14 | -22.49464 | -45.64030 | 27746 ft | 454 kts | 33° |
| 2026-04-24 13:14 | -22.46898 | -45.62027 | 28155 ft | 456 kts | 34° |
| 2026-04-24 13:15 | -22.44312 | -45.60008 | 28508 ft | 458 kts | 34° |
| 2026-04-24 13:15 | -22.41731 | -45.57995 | 28807 ft | 462 kts | 34° |
| 2026-04-24 13:15 | -22.39109 | -45.55951 | 29175 ft | 465 kts | 34° |
| 2026-04-24 13:15 | -22.36474 | -45.53897 | 29510 ft | 468 kts | 34° |
| 2026-04-24 13:16 | -22.33789 | -45.51805 | 29865 ft | 471 kts | 34° |
| 2026-04-24 13:16 | -22.31130 | -45.49734 | 30187 ft | 474 kts | 34° |
| 2026-04-24 13:16 | -22.28439 | -45.47640 | 30528 ft | 476 kts | 34° |
| 2026-04-24 13:16 | -22.25730 | -45.45533 | 30832 ft | 479 kts | 34° |
| 2026-04-24 13:17 | -22.23031 | -45.43433 | 31171 ft | 481 kts | 34° |
| 2026-04-24 13:17 | -22.20306 | -45.41314 | 31514 ft | 483 kts | 34° |
| 2026-04-24 13:17 | -22.17537 | -45.39163 | 31778 ft | 487 kts | 34° |
| 2026-04-24 13:17 | -22.14800 | -45.37036 | 32084 ft | 489 kts | 34° |
| 2026-04-24 13:18 | -22.12037 | -45.34891 | 32400 ft | 491 kts | 34° |
| 2026-04-24 13:18 | -22.09233 | -45.32715 | 32703 ft | 492 kts | 34° |
| 2026-04-24 13:18 | -22.06480 | -45.30579 | 33176 ft | 490 kts | 34° |
| 2026-04-24 13:18 | -22.03703 | -45.28427 | 33860 ft | 484 kts | 34° |
| 2026-04-24 13:19 | -22.00998 | -45.26331 | 34425 ft | 480 kts | 34° |
| 2026-04-24 13:19 | -21.98272 | -45.24220 | 34894 ft | 478 kts | 34° |
| 2026-04-24 13:19 | -21.95610 | -45.22160 | 35376 ft | 475 kts | 34° |
| 2026-04-24 13:19 | -21.92892 | -45.20058 | 35740 ft | 474 kts | 34° |
| 2026-04-24 13:20 | -21.90194 | -45.17973 | 36086 ft | 473 kts | 34° |
| 2026-04-24 13:20 | -21.87507 | -45.15897 | 36426 ft | 472 kts | 34° |
| 2026-04-24 13:20 | -21.84807 | -45.13811 | 36824 ft | 470 kts | 34° |
| 2026-04-24 13:20 | -21.82135 | -45.11750 | 37187 ft | 468 kts | 33° |
| 2026-04-24 13:21 | -21.76802 | -45.07636 | 37238 ft | 464 kts | 33° |
| 2026-04-24 13:21 | -21.71564 | -45.03598 | 37244 ft | 460 kts | 34° |
| 2026-04-24 13:22 | -21.66268 | -44.99524 | 37237 ft | 467 kts | 34° |
| 2026-04-24 13:22 | -21.60939 | -44.95427 | 37229 ft | 468 kts | 34° |
| 2026-04-24 13:23 | -21.55638 | -44.91351 | 37231 ft | 468 kts | 34° |
| 2026-04-24 13:23 | -21.50297 | -44.87250 | 37225 ft | 467 kts | 34° |
| 2026-04-24 13:24 | -21.45001 | -44.83186 | 37229 ft | 466 kts | 34° |
| 2026-04-24 13:24 | -21.39686 | -44.79112 | 37229 ft | 467 kts | 34° |
| 2026-04-24 13:25 | -21.34364 | -44.75037 | 37228 ft | 466 kts | 34° |
| 2026-04-24 13:25 | -21.29071 | -44.70988 | 37228 ft | 466 kts | 34° |
| 2026-04-24 13:26 | -21.23736 | -44.66911 | 37232 ft | 465 kts | 34° |
| 2026-04-24 13:26 | -21.18479 | -44.62779 | 37236 ft | 466 kts | 36° |
| 2026-04-24 13:27 | -21.13305 | -44.58458 | 37236 ft | 467 kts | 37° |
| 2026-04-24 13:27 | -21.08192 | -44.54142 | 37241 ft | 465 kts | 37° |
| 2026-04-24 13:28 | -21.03068 | -44.49838 | 37240 ft | 465 kts | 37° |
| 2026-04-24 13:28 | -20.97943 | -44.45561 | 37242 ft | 465 kts | 37° |
| 2026-04-24 13:29 | -20.92820 | -44.41304 | 37245 ft | 465 kts | 37° |
| 2026-04-24 13:29 | -20.87672 | -44.37038 | 37251 ft | 466 kts | 37° |
| 2026-04-24 13:30 | -20.82509 | -44.32764 | 37253 ft | 465 kts | 37° |
| 2026-04-24 13:30 | -20.77363 | -44.28509 | 37261 ft | 465 kts | 37° |
| 2026-04-24 13:31 | -20.72254 | -44.24290 | 37261 ft | 466 kts | 37° |
| 2026-04-24 13:31 | -20.67103 | -44.20037 | 37246 ft | 465 kts | 37° |
| 2026-04-24 13:32 | -20.61949 | -44.15779 | 37236 ft | 466 kts | 37° |
| 2026-04-24 13:32 | -20.56813 | -44.11467 | 37240 ft | 465 kts | 38° |
| 2026-04-24 13:33 | -20.51694 | -44.07142 | 37238 ft | 464 kts | 38° |
| 2026-04-24 13:33 | -20.46592 | -44.02881 | 37239 ft | 465 kts | 37° |
| 2026-04-24 13:34 | -20.41435 | -43.98658 | 37240 ft | 464 kts | 37° |
| 2026-04-24 13:34 | -20.36304 | -43.94477 | 37242 ft | 464 kts | 37° |
| 2026-04-24 13:35 | -20.31145 | -43.90273 | 37246 ft | 463 kts | 37° |
| 2026-04-24 13:35 | -20.25957 | -43.86044 | 37239 ft | 464 kts | 37° |
| 2026-04-24 13:36 | -20.20841 | -43.81873 | 37241 ft | 463 kts | 37° |
| 2026-04-24 13:36 | -20.15680 | -43.77668 | 37241 ft | 464 kts | 37° |
| 2026-04-24 13:37 | -20.10539 | -43.73481 | 37244 ft | 462 kts | 38° |
| 2026-04-24 13:37 | -20.05410 | -43.69308 | 37242 ft | 462 kts | 38° |
| 2026-04-24 13:38 | -20.00281 | -43.65138 | 37239 ft | 462 kts | 38° |
| 2026-04-24 13:38 | -19.95102 | -43.60931 | 37228 ft | 462 kts | 38° |
| 2026-04-24 13:39 | -19.89978 | -43.56772 | 37224 ft | 462 kts | 38° |
| 2026-04-24 13:39 | -19.84831 | -43.52593 | 37223 ft | 462 kts | 38° |
| 2026-04-24 13:40 | -19.79692 | -43.48413 | 37219 ft | 462 kts | 38° |
| 2026-04-24 13:40 | -19.74570 | -43.44250 | 37216 ft | 462 kts | 38° |
| 2026-04-24 13:41 | -19.69458 | -43.40099 | 37213 ft | 461 kts | 38° |
| 2026-04-24 13:41 | -19.64330 | -43.35939 | 37211 ft | 460 kts | 38° |
| 2026-04-24 13:42 | -19.59238 | -43.31812 | 37208 ft | 461 kts | 38° |
| 2026-04-24 13:42 | -19.54118 | -43.27665 | 37208 ft | 461 kts | 38° |
| 2026-04-24 13:43 | -19.49011 | -43.23533 | 37204 ft | 461 kts | 38° |
| 2026-04-24 13:43 | -19.43869 | -43.19375 | 37202 ft | 461 kts | 38° |
| 2026-04-24 13:44 | -19.38745 | -43.15236 | 37197 ft | 461 kts | 38° |
| 2026-04-24 13:44 | -19.33611 | -43.11091 | 37195 ft | 460 kts | 38° |
| 2026-04-24 13:45 | -19.28531 | -43.06993 | 37190 ft | 461 kts | 38° |
| 2026-04-24 13:45 | -19.23394 | -43.02853 | 37187 ft | 459 kts | 38° |
| 2026-04-24 13:46 | -19.18311 | -42.98759 | 37186 ft | 459 kts | 38° |
| 2026-04-24 13:46 | -19.13229 | -42.94670 | 37187 ft | 460 kts | 38° |
| 2026-04-24 13:47 | -19.08100 | -42.90547 | 37187 ft | 460 kts | 38° |
| 2026-04-24 13:47 | -19.02994 | -42.86445 | 37188 ft | 459 kts | 38° |
| 2026-04-24 13:48 | -18.97897 | -42.82354 | 37189 ft | 460 kts | 38° |
| 2026-04-24 13:48 | -18.92770 | -42.78241 | 37195 ft | 458 kts | 38° |
| 2026-04-24 13:49 | -18.87693 | -42.74173 | 37198 ft | 458 kts | 38° |
| 2026-04-24 13:49 | -18.82610 | -42.70104 | 37202 ft | 459 kts | 38° |
| 2026-04-24 13:50 | -18.77490 | -42.66009 | 37208 ft | 460 kts | 38° |
| 2026-04-24 13:50 | -18.72330 | -42.61885 | 37207 ft | 460 kts | 38° |
| 2026-04-24 13:51 | -18.67206 | -42.57793 | 37206 ft | 459 kts | 38° |
| 2026-04-24 13:51 | -18.62092 | -42.53711 | 37199 ft | 460 kts | 38° |
| 2026-04-24 13:52 | -18.56964 | -42.49620 | 37198 ft | 460 kts | 38° |
| 2026-04-24 13:52 | -18.51841 | -42.45536 | 37185 ft | 460 kts | 38° |
| 2026-04-24 13:53 | -18.46737 | -42.41470 | 37186 ft | 460 kts | 38° |
| 2026-04-24 13:53 | -18.41587 | -42.37373 | 37189 ft | 459 kts | 38° |
| 2026-04-24 13:54 | -18.36453 | -42.33290 | 37191 ft | 460 kts | 37° |
| 2026-04-24 13:54 | -18.31313 | -42.29206 | 37190 ft | 460 kts | 37° |
| 2026-04-24 13:55 | -18.26192 | -42.25140 | 37196 ft | 461 kts | 37° |
| 2026-04-24 13:55 | -18.21056 | -42.21067 | 37188 ft | 460 kts | 37° |
| 2026-04-24 13:56 | -18.15886 | -42.16970 | 37177 ft | 461 kts | 37° |
| 2026-04-24 13:56 | -18.10760 | -42.12910 | 37173 ft | 460 kts | 37° |
| 2026-04-24 13:57 | -18.05594 | -42.08822 | 37169 ft | 461 kts | 37° |
| 2026-04-24 13:57 | -18.00463 | -42.04764 | 37165 ft | 460 kts | 37° |
| 2026-04-24 13:58 | -17.95330 | -42.00707 | 37173 ft | 459 kts | 37° |
| 2026-04-24 13:58 | -17.90198 | -41.96656 | 37177 ft | 461 kts | 37° |
| 2026-04-24 13:59 | -17.85064 | -41.92604 | 37180 ft | 459 kts | 37° |
| 2026-04-24 13:59 | -17.79910 | -41.88541 | 37184 ft | 461 kts | 37° |
| 2026-04-24 14:00 | -17.74739 | -41.84467 | 37184 ft | 460 kts | 37° |
| 2026-04-24 14:00 | -17.69618 | -41.80436 | 37181 ft | 461 kts | 37° |
| 2026-04-24 14:01 | -17.64449 | -41.76370 | 37177 ft | 460 kts | 37° |
| 2026-04-24 14:01 | -17.59293 | -41.72318 | 37173 ft | 460 kts | 37° |
| 2026-04-24 14:02 | -17.54138 | -41.68268 | 37169 ft | 460 kts | 37° |
| 2026-04-24 14:02 | -17.49005 | -41.64238 | 37166 ft | 460 kts | 38° |
| 2026-04-24 14:03 | -17.43815 | -41.60168 | 37165 ft | 460 kts | 38° |
| 2026-04-24 14:03 | -17.38668 | -41.56134 | 37166 ft | 461 kts | 38° |
| 2026-04-24 14:04 | -17.33485 | -41.52072 | 37166 ft | 461 kts | 38° |
| 2026-04-24 14:04 | -17.28302 | -41.48015 | 37168 ft | 460 kts | 38° |
| 2026-04-24 14:05 | -17.23159 | -41.43991 | 37173 ft | 460 kts | 38° |
| 2026-04-24 14:05 | -17.18010 | -41.39966 | 37175 ft | 460 kts | 38° |
| 2026-04-24 14:06 | -17.12864 | -41.35945 | 37174 ft | 460 kts | 38° |
| 2026-04-24 14:06 | -17.07653 | -41.31877 | 37174 ft | 461 kts | 37° |
| 2026-04-24 14:07 | -17.02529 | -41.27880 | 37174 ft | 460 kts | 37° |
| 2026-04-24 14:07 | -16.97353 | -41.23845 | 37175 ft | 461 kts | 38° |
| 2026-04-24 14:08 | -16.92190 | -41.19822 | 37172 ft | 460 kts | 38° |
| 2026-04-24 14:08 | -16.87038 | -41.15811 | 37169 ft | 459 kts | 38° |
| 2026-04-24 14:09 | -16.81886 | -41.11802 | 37168 ft | 459 kts | 38° |
| 2026-04-24 14:09 | -16.76743 | -41.07803 | 37168 ft | 460 kts | 38° |
| 2026-04-24 14:10 | -16.71579 | -41.03791 | 37166 ft | 459 kts | 38° |
| 2026-04-24 14:10 | -16.66442 | -40.99804 | 37169 ft | 460 kts | 38° |
| 2026-04-24 14:11 | -16.61292 | -40.95808 | 37172 ft | 459 kts | 38° |
| 2026-04-24 14:12 | -16.53576 | -40.89828 | 37175 ft | 458 kts | 38° |
| 2026-04-24 14:12 | -16.48415 | -40.85831 | 37167 ft | 459 kts | 38° |
| 2026-04-24 14:13 | -16.43251 | -40.81835 | 37163 ft | 457 kts | 38° |
| 2026-04-24 14:13 | -16.38107 | -40.77857 | 37156 ft | 458 kts | 38° |
| 2026-04-24 14:14 | -16.32974 | -40.73889 | 37149 ft | 458 kts | 38° |
| 2026-04-24 14:14 | -16.25262 | -40.67933 | 37139 ft | 457 kts | 38° |
| 2026-04-24 14:15 | -16.20136 | -40.63978 | 37133 ft | 456 kts | 38° |
| 2026-04-24 14:15 | -16.15021 | -40.60034 | 37133 ft | 456 kts | 38° |
| 2026-04-24 14:16 | -16.09897 | -40.56085 | 37136 ft | 455 kts | 38° |
| 2026-04-24 14:17 | -16.02237 | -40.50188 | 37128 ft | 454 kts | 38° |
| 2026-04-24 14:17 | -15.94608 | -40.44318 | 37126 ft | 454 kts | 39° |
| 2026-04-24 14:18 | -15.89482 | -40.40382 | 37131 ft | 455 kts | 39° |
| 2026-04-24 14:18 | -15.84371 | -40.36462 | 37123 ft | 454 kts | 39° |
| 2026-04-24 14:19 | -15.79289 | -40.32567 | 37118 ft | 454 kts | 38° |
| 2026-04-24 14:19 | -15.74179 | -40.28653 | 37114 ft | 452 kts | 38° |
| 2026-04-24 14:20 | -15.69101 | -40.24765 | 37110 ft | 452 kts | 38° |
| 2026-04-24 14:20 | -15.64033 | -40.20887 | 37114 ft | 452 kts | 38° |
| 2026-04-24 14:21 | -15.58926 | -40.16981 | 37106 ft | 451 kts | 38° |
| 2026-04-24 14:21 | -15.53819 | -40.13084 | 37102 ft | 451 kts | 38° |
| 2026-04-24 14:22 | -15.48729 | -40.09205 | 37096 ft | 450 kts | 38° |
| 2026-04-24 14:23 | -15.41105 | -40.03401 | 37086 ft | 449 kts | 38° |
| 2026-04-24 14:23 | -15.36006 | -39.99522 | 37083 ft | 449 kts | 38° |
| 2026-04-24 14:24 | -15.30958 | -39.95683 | 37087 ft | 448 kts | 38° |
| 2026-04-24 14:24 | -15.25916 | -39.91851 | 37087 ft | 447 kts | 38° |
| 2026-04-24 14:25 | -15.21716 | -39.88661 | 37090 ft | 447 kts | 38° |
| 2026-04-24 14:25 | -15.15820 | -39.84185 | 37091 ft | 447 kts | 38° |
| 2026-04-24 14:26 | -15.10773 | -39.80357 | 37089 ft | 448 kts | 38° |
| 2026-04-24 14:26 | -15.05742 | -39.76543 | 37090 ft | 447 kts | 38° |
| 2026-04-24 14:27 | -15.00657 | -39.72690 | 37091 ft | 446 kts | 38° |
| 2026-04-24 14:27 | -14.95620 | -39.68881 | 37088 ft | 446 kts | 38° |
| 2026-04-24 14:28 | -14.90589 | -39.65091 | 37080 ft | 446 kts | 38° |
| 2026-04-24 14:28 | -14.85520 | -39.61276 | 37075 ft | 446 kts | 38° |
| 2026-04-24 14:29 | -14.80503 | -39.57503 | 37071 ft | 446 kts | 38° |
| 2026-04-24 14:29 | -14.75474 | -39.53721 | 37066 ft | 446 kts | 38° |
| 2026-04-24 14:30 | -14.71243 | -39.50540 | 37064 ft | 447 kts | 38° |
| 2026-04-24 14:30 | -14.65368 | -39.46128 | 37061 ft | 445 kts | 38° |
| 2026-04-24 14:31 | -14.60334 | -39.42350 | 37059 ft | 446 kts | 38° |
| 2026-04-24 14:31 | -14.55294 | -39.38568 | 37051 ft | 445 kts | 38° |
| 2026-04-24 14:32 | -14.50275 | -39.34805 | 37053 ft | 445 kts | 38° |
| 2026-04-24 14:32 | -14.45233 | -39.31026 | 37044 ft | 445 kts | 38° |
| 2026-04-24 14:33 | -14.40168 | -39.27233 | 37046 ft | 446 kts | 38° |
| 2026-04-24 14:33 | -14.35143 | -39.23473 | 37042 ft | 444 kts | 38° |
| 2026-04-24 14:34 | -14.30088 | -39.19692 | 37039 ft | 444 kts | 38° |
| 2026-04-24 14:34 | -14.25033 | -39.15911 | 37034 ft | 444 kts | 38° |
| 2026-04-24 14:35 | -14.19984 | -39.12138 | 37037 ft | 444 kts | 38° |
| 2026-04-24 14:35 | -14.14945 | -39.08373 | 37036 ft | 445 kts | 38° |
| 2026-04-24 14:36 | -14.09899 | -39.04605 | 37035 ft | 445 kts | 38° |
| 2026-04-24 14:36 | -14.04890 | -39.00870 | 37028 ft | 443 kts | 38° |
| 2026-04-24 14:37 | -13.99833 | -38.97101 | 37031 ft | 444 kts | 38° |
| 2026-04-24 14:37 | -13.94810 | -38.93358 | 37027 ft | 444 kts | 38° |
| 2026-04-24 14:38 | -13.89762 | -38.89599 | 37025 ft | 446 kts | 38° |
| 2026-04-24 14:38 | -13.84761 | -38.85876 | 37023 ft | 444 kts | 38° |
| 2026-04-24 14:39 | -13.79735 | -38.82137 | 37025 ft | 444 kts | 38° |
| 2026-04-24 14:39 | -13.74705 | -38.78398 | 37021 ft | 443 kts | 38° |
| 2026-04-24 14:40 | -13.69676 | -38.74661 | 37018 ft | 443 kts | 38° |
| 2026-04-24 14:40 | -13.64626 | -38.70909 | 37017 ft | 444 kts | 38° |
| 2026-04-24 14:41 | -13.59605 | -38.67181 | 37016 ft | 445 kts | 38° |
| 2026-04-24 14:41 | -13.54542 | -38.63424 | 37014 ft | 445 kts | 38° |
| 2026-04-24 14:42 | -13.50323 | -38.60296 | 37015 ft | 445 kts | 38° |
| 2026-04-24 14:42 | -13.44425 | -38.55925 | 37013 ft | 444 kts | 38° |
| 2026-04-24 14:43 | -13.39395 | -38.52199 | 37011 ft | 444 kts | 39° |
| 2026-04-24 14:43 | -13.34371 | -38.48481 | 37012 ft | 445 kts | 38° |
| 2026-04-24 14:44 | -13.29320 | -38.44743 | 37012 ft | 445 kts | 38° |
| 2026-04-24 14:44 | -13.24277 | -38.41013 | 37012 ft | 445 kts | 39° |
| 2026-04-24 14:45 | -13.19192 | -38.37255 | 37011 ft | 445 kts | 38° |
| 2026-04-24 14:45 | -13.14140 | -38.33523 | 37011 ft | 445 kts | 38° |
| 2026-04-24 14:46 | -13.09048 | -38.29763 | 37011 ft | 445 kts | 38° |
| 2026-04-24 14:46 | -13.03984 | -38.26025 | 37011 ft | 445 kts | 38° |
| 2026-04-24 14:47 | -12.99772 | -38.22919 | 37011 ft | 445 kts | 38° |
| 2026-04-24 14:47 | -12.93867 | -38.18567 | 37011 ft | 445 kts | 38° |
| 2026-04-24 14:48 | -12.88793 | -38.14829 | 37011 ft | 446 kts | 38° |
| 2026-04-24 14:48 | -12.83707 | -38.11082 | 37007 ft | 446 kts | 38° |
| 2026-04-24 14:49 | -12.78608 | -38.07330 | 37005 ft | 446 kts | 38° |
| 2026-04-24 14:49 | -12.73561 | -38.03618 | 37003 ft | 445 kts | 38° |
| 2026-04-24 14:50 | -12.68501 | -37.99897 | 37000 ft | 445 kts | 38° |
| 2026-04-24 14:50 | -12.63437 | -37.96175 | 36992 ft | 446 kts | 38° |
| 2026-04-24 14:51 | -12.58387 | -37.92466 | 36989 ft | 446 kts | 38° |
| 2026-04-24 14:51 | -12.53312 | -37.88740 | 36989 ft | 446 kts | 38° |
| 2026-04-24 14:52 | -12.48246 | -37.85023 | 36989 ft | 446 kts | 38° |
| 2026-04-24 14:52 | -12.43144 | -37.81280 | 36989 ft | 447 kts | 38° |
| 2026-04-24 14:53 | -12.38078 | -37.77567 | 36988 ft | 446 kts | 38° |
| 2026-04-24 14:53 | -12.32967 | -37.73822 | 36987 ft | 447 kts | 38° |
| 2026-04-24 14:54 | -12.27922 | -37.70128 | 36985 ft | 446 kts | 38° |
| 2026-04-24 14:54 | -12.22820 | -37.66393 | 36981 ft | 445 kts | 38° |
| 2026-04-24 14:55 | -12.18632 | -37.63329 | 36978 ft | 445 kts | 38° |
| 2026-04-24 14:55 | -12.12724 | -37.59008 | 36974 ft | 447 kts | 38° |
| 2026-04-24 14:56 | -12.07612 | -37.55271 | 36968 ft | 447 kts | 38° |
| 2026-04-24 14:56 | -12.02546 | -37.51571 | 36967 ft | 447 kts | 38° |
| 2026-04-24 14:57 | -11.97443 | -37.47845 | 36967 ft | 447 kts | 38° |
| 2026-04-24 14:57 | -11.92336 | -37.44117 | 36968 ft | 448 kts | 38° |
| 2026-04-24 14:58 | -11.87219 | -37.40399 | 36966 ft | 448 kts | 38° |
| 2026-04-24 14:58 | -11.82112 | -37.36702 | 36967 ft | 448 kts | 38° |
| 2026-04-24 14:59 | -11.77009 | -37.33011 | 36966 ft | 448 kts | 37° |
| 2026-04-24 14:59 | -11.71912 | -37.29323 | 36966 ft | 448 kts | 38° |
| 2026-04-24 15:00 | -11.66785 | -37.25614 | 37247 ft | 451 kts | 37° |
| 2026-04-24 15:00 | -11.64217 | -37.23758 | 37667 ft | 449 kts | 37° |
| 2026-04-24 15:00 | -11.61661 | -37.21910 | 37899 ft | 450 kts | 37° |
| 2026-04-24 15:00 | -11.59088 | -37.20050 | 38166 ft | 450 kts | 37° |
| 2026-04-24 15:01 | -11.56547 | -37.18213 | 38478 ft | 449 kts | 37° |
| 2026-04-24 15:01 | -11.54004 | -37.16376 | 38731 ft | 449 kts | 37° |
| 2026-04-24 15:01 | -11.51454 | -37.14534 | 38971 ft | 449 kts | 37° |
| 2026-04-24 15:02 | -11.46306 | -37.10816 | 38967 ft | 450 kts | 37° |
| 2026-04-24 15:02 | -11.41229 | -37.07153 | 38968 ft | 449 kts | 37° |
| 2026-04-24 15:03 | -11.36964 | -37.04075 | 38970 ft | 451 kts | 37° |
| 2026-04-24 15:03 | -11.30983 | -36.99762 | 38968 ft | 450 kts | 37° |
| 2026-04-24 15:04 | -11.25869 | -36.96075 | 38971 ft | 451 kts | 37° |
| 2026-04-24 15:04 | -11.20703 | -36.92353 | 38967 ft | 450 kts | 37° |
| 2026-04-24 15:05 | -11.15609 | -36.88686 | 38976 ft | 451 kts | 37° |
| 2026-04-24 15:05 | -11.10474 | -36.84988 | 38981 ft | 451 kts | 37° |
| 2026-04-24 15:06 | -11.05303 | -36.81268 | 38989 ft | 452 kts | 37° |
| 2026-04-24 15:06 | -11.00172 | -36.77576 | 38986 ft | 452 kts | 37° |
| 2026-04-24 15:07 | -10.95057 | -36.73900 | 38977 ft | 451 kts | 37° |
| 2026-04-24 15:07 | -10.89908 | -36.70200 | 38983 ft | 452 kts | 37° |
| 2026-04-24 15:08 | -10.84755 | -36.66497 | 38981 ft | 452 kts | 37° |
| 2026-04-24 15:08 | -10.79600 | -36.62803 | 38973 ft | 452 kts | 36° |
| 2026-04-24 15:09 | -10.74473 | -36.59152 | 38970 ft | 452 kts | 36° |
| 2026-04-24 15:09 | -10.69291 | -36.55468 | 38964 ft | 451 kts | 37° |
| 2026-04-24 15:10 | -10.64131 | -36.51801 | 38957 ft | 450 kts | 36° |
| 2026-04-24 15:10 | -10.58993 | -36.48148 | 38952 ft | 449 kts | 36° |
| 2026-04-24 15:11 | -10.53827 | -36.44474 | 38948 ft | 450 kts | 36° |
| 2026-04-24 15:11 | -10.48655 | -36.40798 | 38949 ft | 450 kts | 37° |
| 2026-04-24 15:12 | -10.43468 | -36.37114 | 38945 ft | 451 kts | 37° |
| 2026-04-24 15:12 | -10.35689 | -36.31591 | 38948 ft | 451 kts | 36° |
| 2026-04-24 15:13 | -10.30523 | -36.27925 | 38946 ft | 450 kts | 36° |
| 2026-04-24 15:13 | -10.25349 | -36.24256 | 38942 ft | 450 kts | 36° |
| 2026-04-24 15:14 | -10.20214 | -36.20614 | 38946 ft | 450 kts | 36° |
| 2026-04-24 15:14 | -10.15008 | -36.16924 | 38948 ft | 451 kts | 36° |
| 2026-04-24 15:15 | -10.09833 | -36.13257 | 38950 ft | 451 kts | 36° |
| 2026-04-24 15:15 | -10.04664 | -36.09596 | 38948 ft | 453 kts | 36° |
| 2026-04-24 15:16 | -9.99456 | -36.05909 | 38950 ft | 452 kts | 36° |
| 2026-04-24 15:16 | -9.94289 | -36.02253 | 38947 ft | 451 kts | 36° |
| 2026-04-24 15:17 | -9.89110 | -35.98589 | 38950 ft | 450 kts | 36° |
| 2026-04-24 15:17 | -9.83947 | -35.94938 | 38954 ft | 449 kts | 36° |
| 2026-04-24 15:18 | -9.78774 | -35.91279 | 38955 ft | 451 kts | 36° |
| 2026-04-24 15:18 | -9.73635 | -35.87647 | 38953 ft | 451 kts | 36° |
| 2026-04-24 15:19 | -9.68440 | -35.83979 | 38957 ft | 450 kts | 36° |
| 2026-04-24 15:19 | -9.63307 | -35.80356 | 38960 ft | 449 kts | 36° |
| 2026-04-24 15:20 | -9.58110 | -35.76688 | 38961 ft | 450 kts | 36° |
| 2026-04-24 15:20 | -9.52961 | -35.73056 | 38957 ft | 450 kts | 36° |
| 2026-04-24 15:21 | -9.47830 | -35.69437 | 38956 ft | 449 kts | 36° |
| 2026-04-24 15:21 | -9.42650 | -35.65784 | 38960 ft | 449 kts | 36° |
| 2026-04-24 15:22 | -9.37513 | -35.62165 | 38955 ft | 449 kts | 36° |
| 2026-04-24 15:23 | -9.29791 | -35.56727 | 38956 ft | 450 kts | 36° |
| 2026-04-24 15:23 | -9.22040 | -35.51272 | 38952 ft | 449 kts | 36° |
| 2026-04-24 15:25 | -9.09999 | -35.42801 | 38952 ft | 449 kts | 36° |
| 2026-04-24 15:26 | -8.96258 | -35.33145 | 38954 ft | 449 kts | 36° |
| 2026-04-24 15:27 | -8.80750 | -35.22256 | 38947 ft | 450 kts | 36° |
| 2026-04-24 15:29 | -8.65237 | -35.11372 | 38940 ft | 449 kts | 36° |
| 2026-04-24 15:31 | -8.48005 | -34.99298 | 38926 ft | 450 kts | 36° |
| 2026-04-24 15:33 | -8.26525 | -34.84267 | 38929 ft | 448 kts | 36° |
| 2026-04-24 15:34 | -8.13733 | -34.75114 | 38929 ft | 447 kts | 39° |
| 2026-04-24 15:35 | -8.01654 | -34.65273 | 38926 ft | 443 kts | 40° |
| 2026-04-24 15:36 | -7.96837 | -34.61375 | 38927 ft | 443 kts | 40° |
| 2026-04-24 15:36 | -7.89570 | -34.55533 | 38925 ft | 442 kts | 40° |
| 2026-04-24 15:37 | -7.84755 | -34.51673 | 38922 ft | 441 kts | 39° |
| 2026-04-24 15:37 | -7.79921 | -34.47802 | 38925 ft | 441 kts | 39° |
| 2026-04-24 15:38 | -7.74966 | -34.44107 | 38927 ft | 441 kts | 33° |
| 2026-04-24 15:38 | -7.69605 | -34.41074 | 38927 ft | 440 kts | 28° |
| 2026-04-24 15:39 | -7.64083 | -34.38268 | 38925 ft | 441 kts | 28° |
| 2026-04-24 15:39 | -7.58560 | -34.35480 | 38925 ft | 441 kts | 28° |
| 2026-04-24 15:40 | -7.53057 | -34.32665 | 38926 ft | 441 kts | 28° |
| 2026-04-24 15:40 | -7.47571 | -34.29834 | 38928 ft | 440 kts | 28° |
| 2026-04-24 15:41 | -7.42131 | -34.27013 | 38927 ft | 438 kts | 28° |
| 2026-04-24 15:41 | -7.36692 | -34.24189 | 38925 ft | 438 kts | 28° |
| 2026-04-24 15:42 | -7.31262 | -34.21368 | 38925 ft | 439 kts | 28° |
| 2026-04-24 15:42 | -7.25784 | -34.18522 | 38918 ft | 440 kts | 28° |
| 2026-04-24 15:43 | -7.20298 | -34.15673 | 38911 ft | 439 kts | 28° |
| 2026-04-24 15:43 | -7.14860 | -34.12851 | 38909 ft | 439 kts | 28° |
| 2026-04-24 15:44 | -7.09418 | -34.10027 | 38904 ft | 438 kts | 28° |
| 2026-04-24 15:44 | -7.03990 | -34.07211 | 38904 ft | 438 kts | 27° |
| 2026-04-24 15:45 | -6.98546 | -34.04387 | 38905 ft | 438 kts | 28° |
| 2026-04-24 15:45 | -6.93088 | -34.01558 | 38905 ft | 438 kts | 28° |
| 2026-04-24 15:46 | -6.87629 | -33.98728 | 38905 ft | 439 kts | 28° |
| 2026-04-24 15:46 | -6.82193 | -33.95910 | 38904 ft | 439 kts | 28° |
| 2026-04-24 15:47 | -6.76714 | -33.93070 | 38905 ft | 437 kts | 28° |
| 2026-04-24 15:47 | -6.71304 | -33.90267 | 38905 ft | 437 kts | 28° |
| 2026-04-24 15:48 | -6.65798 | -33.87416 | 38904 ft | 438 kts | 28° |
| 2026-04-24 15:48 | -6.60364 | -33.84603 | 38905 ft | 439 kts | 28° |
| 2026-04-24 15:49 | -6.54886 | -33.81766 | 38904 ft | 439 kts | 28° |
| 2026-04-24 15:49 | -6.49399 | -33.78927 | 38905 ft | 440 kts | 28° |
| 2026-04-24 15:50 | -6.43926 | -33.76094 | 38904 ft | 439 kts | 28° |
| 2026-04-24 15:50 | -6.38437 | -33.73255 | 38905 ft | 439 kts | 28° |
| 2026-04-24 15:51 | -6.32962 | -33.70423 | 38905 ft | 440 kts | 28° |
| 2026-04-24 15:51 | -6.27385 | -33.67793 | 38905 ft | 441 kts | 25° |
| 2026-04-24 15:52 | -6.21695 | -33.65407 | 38905 ft | 442 kts | 24° |
| 2026-04-24 15:52 | -6.15932 | -33.63012 | 38905 ft | 442 kts | 24° |
| 2026-04-24 15:53 | -6.10215 | -33.60601 | 38905 ft | 443 kts | 25° |
| 2026-04-24 15:53 | -6.04486 | -33.58156 | 38905 ft | 445 kts | 25° |
| 2026-04-24 15:54 | -5.98768 | -33.55705 | 38905 ft | 446 kts | 25° |
| 2026-04-24 15:54 | -5.93020 | -33.53236 | 38904 ft | 446 kts | 25° |
| 2026-04-24 15:55 | -5.87329 | -33.50791 | 38905 ft | 444 kts | 25° |
| 2026-04-24 15:55 | -5.81640 | -33.48347 | 38904 ft | 444 kts | 25° |
| 2026-04-24 15:56 | -5.75915 | -33.45888 | 38902 ft | 446 kts | 25° |
| 2026-04-24 15:56 | -5.70172 | -33.43420 | 38899 ft | 447 kts | 25° |
| 2026-04-24 15:57 | -5.64415 | -33.40949 | 38893 ft | 446 kts | 25° |
| 2026-04-24 15:57 | -5.58669 | -33.38483 | 38888 ft | 446 kts | 25° |
| 2026-04-24 15:58 | -5.52914 | -33.36013 | 38885 ft | 446 kts | 25° |
| 2026-04-24 15:58 | -5.47230 | -33.33575 | 38615 ft | 433 kts | 25° |
| 2026-04-24 15:59 | -5.44477 | -33.32395 | 38216 ft | 432 kts | 25° |
| 2026-04-24 15:59 | -5.41709 | -33.31206 | 37701 ft | 432 kts | 25° |
| 2026-04-24 15:59 | -5.38937 | -33.30017 | 37124 ft | 431 kts | 25° |
| 2026-04-24 15:59 | -5.36179 | -33.28833 | 36537 ft | 430 kts | 25° |
| 2026-04-24 16:00 | -5.33420 | -33.27649 | 35950 ft | 430 kts | 25° |
| 2026-04-24 16:00 | -5.30639 | -33.26455 | 35300 ft | 430 kts | 25° |
| 2026-04-24 16:00 | -5.27884 | -33.25273 | 34640 ft | 430 kts | 25° |
| 2026-04-24 16:00 | -5.25099 | -33.24078 | 33927 ft | 429 kts | 25° |
| 2026-04-24 16:01 | -5.22334 | -33.22892 | 33215 ft | 429 kts | 25° |
| 2026-04-24 16:01 | -5.19592 | -33.21717 | 32516 ft | 429 kts | 25° |
| 2026-04-24 16:01 | -5.16847 | -33.20541 | 31806 ft | 430 kts | 25° |
| 2026-04-24 16:01 | -5.14063 | -33.19347 | 31233 ft | 431 kts | 25° |
| 2026-04-24 16:02 | -5.11244 | -33.18138 | 30644 ft | 444 kts | 25° |
| 2026-04-24 16:02 | -5.08388 | -33.16913 | 30017 ft | 446 kts | 25° |
| 2026-04-24 16:02 | -5.05552 | -33.15697 | 29389 ft | 444 kts | 25° |
| 2026-04-24 16:02 | -5.02724 | -33.14487 | 28768 ft | 441 kts | 24° |
| 2026-04-24 16:03 | -4.99917 | -33.13285 | 28156 ft | 438 kts | 25° |
| 2026-04-24 16:03 | -4.97095 | -33.12078 | 27543 ft | 435 kts | 24° |
| 2026-04-24 16:03 | -4.94310 | -33.10886 | 26925 ft | 433 kts | 24° |
| 2026-04-24 16:03 | -4.91543 | -33.09702 | 26298 ft | 430 kts | 25° |
| 2026-04-24 16:04 | -4.88798 | -33.08527 | 25674 ft | 428 kts | 25° |
| 2026-04-24 16:04 | -4.86052 | -33.07352 | 25052 ft | 426 kts | 25° |
| 2026-04-24 16:04 | -4.83334 | -33.06187 | 24427 ft | 423 kts | 25° |
| 2026-04-24 16:04 | -4.80627 | -33.05029 | 23807 ft | 421 kts | 25° |
| 2026-04-24 16:05 | -4.75305 | -33.02749 | 22585 ft | 416 kts | 24° |
| 2026-04-24 16:05 | -4.72618 | -33.01598 | 21977 ft | 413 kts | 24° |
| 2026-04-24 16:06 | -4.67372 | -32.99353 | 20762 ft | 409 kts | 24° |
| 2026-04-24 16:06 | -4.64748 | -32.98230 | 20147 ft | 407 kts | 24° |
| 2026-04-24 16:06 | -4.59524 | -32.95995 | 18921 ft | 403 kts | 25° |
| 2026-04-24 16:07 | -4.56955 | -32.94900 | 18317 ft | 401 kts | 25° |
| 2026-04-24 16:07 | -4.54398 | -32.93808 | 17718 ft | 398 kts | 25° |
| 2026-04-24 16:07 | -4.49301 | -32.91623 | 16525 ft | 394 kts | 25° |
| 2026-04-24 16:08 | -4.46812 | -32.90555 | 15937 ft | 391 kts | 25° |
| 2026-04-24 16:08 | -4.41876 | -32.88441 | 14765 ft | 372 kts | 25° |
| 2026-04-24 16:09 | -4.37290 | -32.86483 | 13708 ft | 346 kts | 25° |
| 2026-04-24 16:09 | -4.35051 | -32.85524 | 13136 ft | 346 kts | 25° |
| 2026-04-24 16:09 | -4.33572 | -32.84889 | 12772 ft | 346 kts | 25° |
| 2026-04-24 16:09 | -4.30631 | -32.83627 | 12055 ft | 345 kts | 25° |
| 2026-04-24 16:10 | -4.24026 | -32.80801 | 10465 ft | 341 kts | 25° |
| 2026-04-24 16:11 | -4.19762 | -32.78981 | 10028 ft | 318 kts | 25° |
| 2026-04-24 16:11 | -4.17746 | -32.78119 | 9652 ft | 312 kts | 25° |
| 2026-04-24 16:11 | -4.15779 | -32.77279 | 9253 ft | 299 kts | 25° |
| 2026-04-24 16:12 | -4.12085 | -32.75699 | 8501 ft | 283 kts | 25° |
| 2026-04-24 16:12 | -4.10276 | -32.74924 | 8100 ft | 282 kts | 25° |
| 2026-04-24 16:12 | -4.06671 | -32.73381 | 7353 ft | 280 kts | 25° |
| 2026-04-24 16:13 | -4.04872 | -32.72612 | 7019 ft | 277 kts | 25° |
| 2026-04-24 16:13 | -4.01432 | -32.71144 | 6803 ft | 255 kts | 24° |
| 2026-04-24 16:14 | -3.98302 | -32.69807 | 6644 ft | 231 kts | 24° |
| 2026-04-24 16:14 | -3.96847 | -32.69185 | 6557 ft | 219 kts | 25° |
| 2026-04-24 16:14 | -3.94144 | -32.68026 | 6409 ft | 206 kts | 25° |
| 2026-04-24 16:15 | -3.93253 | -32.67645 | 6359 ft | 207 kts | 25° |
| 2026-04-24 16:15 | -3.90103 | -32.66233 | 5456 ft | 217 kts | 26° |
| 2026-04-24 16:16 | -3.87379 | -32.65003 | 4589 ft | 214 kts | 25° |
| 2026-04-24 16:16 | -3.86058 | -32.64409 | 4505 ft | 196 kts | 26° |
| 2026-04-24 16:17 | -3.83935 | -32.61642 | 4418 ft | 182 kts | 94° |
| 2026-04-24 16:17 | -3.84163 | -32.59159 | 3476 ft | 177 kts | 93° |
| 2026-04-24 16:18 | -3.84339 | -32.56799 | 2654 ft | 164 kts | 94° |
| 2026-04-24 16:18 | -3.84498 | -32.54736 | 2510 ft | 143 kts | 92° |
| 2026-04-24 16:18 | -3.84574 | -32.53726 | 2314 ft | 145 kts | 92° |
| 2026-04-24 16:19 | -3.84728 | -32.51749 | 1882 ft | 142 kts | 93° |
| 2026-04-24 16:19 | -3.84817 | -32.50759 | 1675 ft | 139 kts | 94° |
| 2026-04-24 16:20 | -3.85063 | -32.48868 | 1214 ft | 137 kts | 93° |
| 2026-04-24 16:20 | -3.85171 | -32.46919 | 1001 ft | 142 kts | 91° |
| 2026-04-24 16:20 | -3.85220 | -32.45918 | 846 ft | 143 kts | 91° |
| 2026-04-24 16:21 | -3.85335 | -32.43898 | 407 ft | 145 kts | 92° |
| 2026-04-24 16:21 | -3.85403 | -32.42903 | 187 ft | 141 kts | 91° |
| 2026-04-24 16:21 | -3.85458 | -32.42084 | 191 ft | 74 kts | 93° |
| 2026-04-24 16:22 | -3.85477 | -32.41753 | 195 ft | 42 kts | 94° |
| 2026-04-24 16:22 | -3.85488 | -32.41481 | 189 ft | 8 kts | 247° |
| 2026-04-24 16:22 | -3.85494 | -32.41524 | 191 ft | 5 kts | 270° |
| 2026-04-24 16:23 | -3.85492 | -32.41581 | 192 ft | 11 kts | 274° |
| 2026-04-24 16:23 | -3.85485 | -32.41677 | 194 ft | 14 kts | 274° |
| 2026-04-24 16:23 | -3.85477 | -32.41783 | 196 ft | 16 kts | 275° |
| 2026-04-24 16:24 | -3.85457 | -32.42072 | 191 ft | 25 kts | 273° |
| 2026-04-24 16:24 | -3.85446 | -32.42255 | 185 ft | 27 kts | 274° |
| 2026-04-24 16:24 | -3.85434 | -32.42443 | 180 ft | 25 kts | 274° |
| 2026-04-24 16:24 | -3.85421 | -32.42624 | 179 ft | 25 kts | 273° |
| 2026-04-24 16:25 | -3.85410 | -32.42800 | 181 ft | 24 kts | 274° |
| 2026-04-24 16:25 | -3.85405 | -32.42905 | 184 ft | 8 kts | 272° |
| 2026-04-24 16:25 | -3.85416 | -32.42960 | 186 ft | 9 kts | 204° |
| 2026-04-24 16:26 | -3.85518 | -32.42904 | 184 ft | 8 kts | 144° |
| 2026-04-24 16:26 | -3.85554 | -32.42844 | 182 ft | 13 kts | 97° |
| 2026-04-24 16:26 | -3.85575 | -32.42785 | 180 ft | 1 kts | 162° |
| 2026-04-24 16:27 | -3.85592 | -32.42788 | 180 ft | 1 kts | 208° |